Portada
METAR-TAF:

METAR-TAF

Aeroports :

Rasht, Iran

latitud: 37-12N, longitud: 049-38E, altitud: -7 m

Observació

L'informe es va fer fa 8 hores i 12 minuts, a les 16:30 UTC
Vent 10 kt del Oest/Sud-Oest
Temperatura 10°C
Humitat 100%
Pressió 1025 hPa
Visibilitat: 8000 m
Escasses núvols a una alçada de 1500 ft, Cumulonimbus.
Núvols disperses a una alçada de 2000 ft
Cel cobert a una alçada de 7000 ft
pluja

METAR: OIGG 051630Z 24010KT 8000 -RA FEW015CB SCT020 OVC070 10/10 Q1025

Hora: 04:12 (00:42 UTC)


TAF: manca

Observacions i pronòstics meteorològics de més de 4000 aeroports (METAR i TAF).

Les estacions disponibles són els punts grocs i vermells al mapa.

Posi el ratolí al punt desitjat per veure el nom de l'estació.

Feu clic per veure les observacions i els pronòstics meteorològics.

Per canviar el mapa: feu clic els botons verds amb una creu de color negre per apropar; al botó verd amb un guió per allunyar la imatge; o en les fletxes verdes per a mapes adjacents.


METAR-TAF: